Time;durP1;ratioP1;P1;durP2;ratioP2;P2;SDS_P1;SDS_P2;PMS_P1;PMS_P2;Temp;Humidity;BMP_temperature;BMP_pressure;BME280_temperature;BME280_humidity;BME280_pressure;Samples;Min_cycle;Max_cycle;Signal;HPM_P1;HPM_P2
2020/12/23 00:01:30;;;;;;;1.80;1.70;;;13.60;99.90;;;;;;10311149;28;20271;-78
2020/12/23 00:06:35;;;;;;;1.40;1.30;;;13.60;99.90;;;;;;10306772;28;20227;-79
2020/12/23 00:11:37;;;;;;;2.00;1.80;;;13.60;99.90;;;;;;10320109;28;20203;-81
2020/12/23 00:16:42;;;;;;;1.63;1.53;;;13.70;99.90;;;;;;10309912;28;20690;-79
2020/12/23 00:21:44;;;;;;;1.47;1.37;;;13.70;99.90;;;;;;10304571;28;20624;-79
2020/12/23 00:26:46;;;;;;;1.30;1.20;;;13.60;99.90;;;;;;10273948;28;20289;-79
2020/12/23 00:31:52;;;;;;;1.50;1.40;;;13.70;99.90;;;;;;10328306;28;20199;-80
2020/12/23 00:36:56;;;;;;;1.60;1.50;;;13.70;99.90;;;;;;10304455;28;20329;-81
2020/12/23 00:41:57;;;;;;;1.40;1.30;;;13.70;99.90;;;;;;10287345;28;20291;-81
2020/12/23 00:46:59;;;;;;;1.23;1.17;;;13.80;99.90;;;;;;10287718;28;20211;-80
2020/12/23 00:52:01;;;;;;;1.37;1.20;;;13.90;99.90;;;;;;10271313;28;20208;-80
2020/12/23 00:57:04;;;;;;;1.07;1.07;;;13.80;99.90;;;;;;10289573;28;20215;-79
2020/12/23 01:02:05;;;;;;;1.30;1.20;;;13.90;99.90;;;;;;10280060;28;20208;-81
2020/12/23 01:07:08;;;;;;;1.30;1.20;;;13.90;99.90;;;;;;10308279;28;20219;-79
2020/12/23 01:12:10;;;;;;;1.40;1.30;;;14.00;99.90;;;;;;10326745;28;20216;-79
2020/12/23 01:17:12;;;;;;;1.57;1.20;;;14.00;99.90;;;;;;10308413;28;20233;-80
2020/12/23 01:22:14;;;;;;;1.10;1.10;;;13.90;99.90;;;;;;10297776;28;20660;-81
2020/12/23 01:27:16;;;;;;;1.30;1.20;;;14.00;99.90;;;;;;10285647;28;20227;-78
2020/12/23 01:32:17;;;;;;;1.00;1.00;;;13.90;99.90;;;;;;10268000;28;20660;-80
2020/12/23 01:37:20;;;;;;;1.10;1.10;;;14.00;99.90;;;;;;10289039;28;20322;-79
2020/12/23 01:42:21;;;;;;;1.10;1.00;;;14.00;99.90;;;;;;10307953;28;20198;-81
2020/12/23 01:47:23;;;;;;;1.97;1.20;;;14.00;99.90;;;;;;10310807;28;20270;-79
2020/12/23 01:52:27;;;;;;;1.63;1.00;;;14.00;99.90;;;;;;10325686;28;20295;-79
2020/12/23 01:57:28;;;;;;;1.00;1.00;;;14.10;99.90;;;;;;10325919;28;20203;-80
2020/12/23 02:02:33;;;;;;;1.30;1.20;;;14.10;99.90;;;;;;10325714;28;20226;-80
2020/12/23 02:07:36;;;;;;;1.63;1.00;;;14.20;99.90;;;;;;10334260;28;20701;-81
2020/12/23 02:12:38;;;;;;;0.90;0.90;;;14.20;99.90;;;;;;10319715;28;20199;-80
2020/12/23 02:17:40;;;;;;;0.87;0.87;;;14.20;99.90;;;;;;10297049;28;20222;-79
2020/12/23 02:22:43;;;;;;;1.00;1.00;;;14.20;99.90;;;;;;10278839;28;20231;-78
2020/12/23 02:27:45;;;;;;;1.00;1.00;;;14.30;99.90;;;;;;10285451;28;20192;-79
2020/12/23 02:32:46;;;;;;;1.23;1.13;;;14.30;99.90;;;;;;10265994;28;20243;-80
2020/12/23 02:37:49;;;;;;;1.67;1.10;;;14.30;99.90;;;;;;10282310;28;20298;-80
2020/12/23 02:42:51;;;;;;;1.40;1.10;;;14.40;99.90;;;;;;10252423;28;20254;-81
2020/12/23 02:47:52;;;;;;;1.20;1.10;;;14.40;99.90;;;;;;10294603;28;20187;-78
2020/12/23 02:52:55;;;;;;;1.30;1.20;;;14.50;99.90;;;;;;10286560;28;20295;-79
2020/12/23 02:57:56;;;;;;;1.10;1.00;;;14.40;99.90;;;;;;10277034;28;20295;-79
2020/12/23 03:02:58;;;;;;;1.03;1.03;;;14.40;99.90;;;;;;10277958;28;20215;-80
2020/12/23 03:08:00;;;;;;;1.10;1.10;;;14.40;99.90;;;;;;10274558;28;20188;-79
2020/12/23 03:13:02;;;;;;;1.20;1.20;;;14.50;99.90;;;;;;10290045;28;20307;-80
2020/12/23 03:18:04;;;;;;;1.20;1.10;;;14.50;99.90;;;;;;10274508;28;20322;-79
2020/12/23 03:23:06;;;;;;;1.10;1.10;;;14.50;99.90;;;;;;10297277;28;20782;-79
2020/12/23 03:28:08;;;;;;;1.20;1.20;;;14.60;99.90;;;;;;10261489;28;20681;-79
2020/12/23 03:33:09;;;;;;;1.00;1.00;;;14.60;99.90;;;;;;10257111;29;20274;-80
2020/12/23 03:38:12;;;;;;;1.00;1.00;;;14.60;99.90;;;;;;10261340;28;20212;-79
2020/12/23 03:43:14;;;;;;;0.93;0.93;;;14.60;99.90;;;;;;10287777;28;20224;-80
2020/12/23 03:48:16;;;;;;;1.10;1.10;;;14.60;99.90;;;;;;10278020;28;20701;-79
2020/12/23 03:53:18;;;;;;;1.57;1.37;;;14.60;99.90;;;;;;10256395;29;20589;-80
2020/12/23 03:58:20;;;;;;;1.03;0.93;;;14.60;99.90;;;;;;10250196;28;20303;-80
2020/12/23 04:03:21;;;;;;;1.20;1.10;;;14.60;99.90;;;;;;10288071;28;20321;-81
2020/12/23 04:08:24;;;;;;;1.23;1.23;;;14.60;99.90;;;;;;10281222;28;20197;-80
2020/12/23 04:13:25;;;;;;;1.30;1.30;;;14.60;99.90;;;;;;10278546;28;20227;-80
2020/12/23 04:18:27;;;;;;;1.33;1.23;;;14.60;99.90;;;;;;10279861;28;20224;-80
2020/12/23 04:23:29;;;;;;;1.30;1.30;;;14.50;99.90;;;;;;10297514;28;20235;-81
2020/12/23 04:28:31;;;;;;;1.60;1.50;;;14.40;99.90;;;;;;10263351;28;20370;-80
2020/12/23 04:33:32;;;;;;;1.40;1.30;;;14.40;99.90;;;;;;10262648;29;20213;-81
2020/12/23 04:38:35;;;;;;;3.33;1.37;;;14.40;99.90;;;;;;10262672;29;20221;-80
2020/12/23 04:43:37;;;;;;;1.47;1.37;;;14.40;99.90;;;;;;10244721;29;20626;-80
2020/12/23 04:48:40;;;;;;;1.53;1.43;;;14.30;99.90;;;;;;10279469;28;20231;-80
2020/12/23 04:53:43;;;;;;;1.60;1.50;;;14.10;99.90;;;;;;10261808;29;20243;-80
2020/12/23 04:58:46;;;;;;;1.40;1.30;;;14.00;99.90;;;;;;10262559;29;20223;-80
2020/12/23 05:03:48;;;;;;;1.00;1.00;;;13.90;99.90;;;;;;10229072;29;20235;-80
2020/12/23 05:08:50;;;;;;;0.93;0.93;;;13.90;99.90;;;;;;10262686;29;20200;-80
2020/12/23 05:13:53;;;;;;;1.20;1.07;;;13.90;99.90;;;;;;10261363;29;20220;-81
2020/12/23 05:18:57;;;;;;;1.20;1.20;;;13.90;99.90;;;;;;10262320;29;20205;-80
2020/12/23 05:23:59;;;;;;;0.90;0.90;;;13.90;99.90;;;;;;10260633;29;20223;-80
2020/12/23 05:29:01;;;;;;;1.40;1.30;;;14.00;99.90;;;;;;10258072;29;20196;-80
2020/12/23 05:34:04;;;;;;;1.10;1.10;;;14.10;99.90;;;;;;10260170;29;20232;-80
2020/12/23 05:39:08;;;;;;;1.00;1.00;;;14.10;99.90;;;;;;10277783;28;20251;-80
2020/12/23 05:44:21;;;;;;;1.37;1.33;;;14.10;99.90;;;;;;10301541;28;20659;-81
2020/12/23 05:49:24;;;;;;;1.30;1.20;;;14.20;99.90;;;;;;10301786;28;20196;-80
2020/12/23 05:54:30;;;;;;;1.10;1.10;;;14.20;99.90;;;;;;10301685;28;20711;-80
2020/12/23 05:59:32;;;;;;;1.30;1.20;;;14.30;99.90;;;;;;10303693;28;20215;-81
2020/12/23 06:04:35;;;;;;;3.33;3.13;;;14.30;99.90;;;;;;10290288;28;20275;-80
2020/12/23 06:09:39;;;;;;;1.20;1.10;;;14.30;99.90;;;;;;10332573;28;20235;-80
2020/12/23 06:14:50;;;;;;;1.07;1.07;;;14.30;99.90;;;;;;10344509;28;20638;-81
2020/12/23 06:19:55;;;;;;;1.40;1.30;;;14.30;99.90;;;;;;10340413;28;20219;-81
2020/12/23 06:25:00;;;;;;;1.00;1.00;;;14.30;99.90;;;;;;10344743;28;20361;-81
2020/12/23 06:30:02;;;;;;;1.10;1.10;;;14.30;99.90;;;;;;10330573;28;20226;-81
2020/12/23 06:35:04;;;;;;;1.27;1.20;;;14.20;99.90;;;;;;10328275;28;20223;-80
2020/12/23 06:40:10;;;;;;;1.13;1.10;;;14.20;99.90;;;;;;10295240;28;20240;-80
2020/12/23 06:45:13;;;;;;;1.70;1.60;;;14.20;99.90;;;;;;10280030;28;20222;-80
2020/12/23 06:50:31;;;;;;;1.33;1.30;;;14.20;99.90;;;;;;10303377;28;20567;-80
2020/12/23 06:55:48;;;;;;;0.90;0.90;;;14.20;99.90;;;;;;10287932;28;20230;-81
2020/12/23 07:00:50;;;;;;;1.50;1.30;;;14.20;99.90;;;;;;10291470;28;20203;-81
2020/12/23 07:05:52;;;;;;;1.20;1.20;;;14.20;99.90;;;;;;10287940;28;20221;-81
2020/12/23 07:11:01;;;;;;;1.50;1.40;;;14.20;99.90;;;;;;10252137;29;20188;-81
2020/12/23 07:16:04;;;;;;;2.50;2.30;;;14.20;99.90;;;;;;10269359;29;20216;-81
2020/12/23 07:21:07;;;;;;;1.50;1.40;;;14.20;99.90;;;;;;10281165;28;20206;-81
2020/12/23 07:26:10;;;;;;;1.30;1.20;;;14.20;99.90;;;;;;10298916;28;20250;-80
2020/12/23 07:31:13;;;;;;;1.33;1.23;;;14.20;99.90;;;;;;10295524;28;20643;-81
2020/12/23 07:36:15;;;;;;;1.50;1.40;;;14.30;99.90;;;;;;10295461;28;20259;-80
2020/12/23 07:41:17;;;;;;;1.40;1.30;;;14.30;99.90;;;;;;10269186;28;20189;-81
2020/12/23 07:46:22;;;;;;;1.40;1.30;;;14.30;99.90;;;;;;10281370;28;20228;-81
2020/12/23 07:51:25;;;;;;;1.10;1.10;;;14.30;99.90;;;;;;10293690;28;20196;-81
2020/12/23 07:56:27;;;;;;;1.77;1.67;;;14.30;99.90;;;;;;10309926;28;20271;-80
2020/12/23 08:01:29;;;;;;;1.30;1.30;;;14.30;99.90;;;;;;10266439;28;20200;-81
2020/12/23 08:06:31;;;;;;;1.00;1.00;;;14.40;99.90;;;;;;10298326;28;20215;-81
2020/12/23 08:11:33;;;;;;;1.10;1.10;;;14.30;99.90;;;;;;10346892;28;20282;-81
2020/12/23 08:16:35;;;;;;;1.60;1.50;;;14.40;99.90;;;;;;10345365;28;20695;-81
2020/12/23 08:21:37;;;;;;;1.60;1.50;;;14.40;99.90;;;;;;10313002;28;20210;-80
2020/12/23 08:26:40;;;;;;;1.47;1.37;;;14.40;99.90;;;;;;10298363;28;20216;-81
2020/12/23 08:31:43;;;;;;;1.27;1.27;;;14.50;99.90;;;;;;10306949;28;20222;-80
2020/12/23 08:36:51;;;;;;;1.63;1.53;;;14.50;99.90;;;;;;10277937;28;20307;-80
2020/12/23 08:41:54;;;;;;;1.20;1.10;;;14.50;99.90;;;;;;10288851;28;20192;-80
2020/12/23 08:46:56;;;;;;;3.10;1.27;;;14.50;99.90;;;;;;10263383;28;20656;-80
2020/12/23 08:51:57;;;;;;;1.70;1.60;;;14.50;99.90;;;;;;10283169;28;20215;-81
2020/12/23 08:57:03;;;;;;;1.50;1.40;;;14.50;99.90;;;;;;10303908;28;20215;-81
2020/12/23 09:02:10;;;;;;;1.67;1.57;;;14.60;99.90;;;;;;10291182;28;20203;-80
2020/12/23 09:07:19;;;;;;;1.20;1.20;;;14.60;99.90;;;;;;10289187;28;20236;-81
2020/12/23 09:12:22;;;;;;;1.50;1.40;;;14.60;99.90;;;;;;10312494;28;20193;-80
2020/12/23 09:17:24;;;;;;;1.57;1.47;;;14.70;99.90;;;;;;10298845;28;20214;-80
2020/12/23 09:22:31;;;;;;;1.90;1.80;;;14.70;99.90;;;;;;10293764;28;20230;-81
2020/12/23 09:27:33;;;;;;;2.00;1.80;;;14.80;99.90;;;;;;10277816;28;20185;-81
2020/12/23 09:32:36;;;;;;;1.70;1.60;;;14.80;99.90;;;;;;10252179;28;20193;-81
2020/12/23 09:37:40;;;;;;;10.50;2.80;;;14.80;99.90;;;;;;10280553;28;20234;-80
2020/12/23 09:42:43;;;;;;;1.73;1.63;;;14.80;99.90;;;;;;10306759;28;20302;-80
2020/12/23 09:47:44;;;;;;;1.70;1.60;;;14.80;99.90;;;;;;10254644;28;20193;-81
2020/12/23 09:52:46;;;;;;;1.73;1.63;;;14.80;99.90;;;;;;10294968;28;20208;-80
2020/12/23 09:57:49;;;;;;;3.83;1.90;;;14.80;99.90;;;;;;10258504;28;20213;-80
2020/12/23 10:02:53;;;;;;;2.80;2.40;;;14.90;99.90;;;;;;10289192;28;20215;-80
2020/12/23 10:07:57;;;;;;;2.03;1.90;;;14.90;99.90;;;;;;10247900;28;20208;-82
2020/12/23 10:12:59;;;;;;;1.70;1.60;;;14.90;99.90;;;;;;10262037;28;20613;-83
2020/12/23 10:18:01;;;;;;;1.50;1.40;;;14.90;99.90;;;;;;10244431;28;20713;-83
2020/12/23 10:23:02;;;;;;;1.40;1.30;;;14.90;99.90;;;;;;10277849;23;20219;-80
2020/12/23 10:28:05;;;;;;;2.20;1.90;;;14.90;99.90;;;;;;10185029;29;20186;-79
2020/12/23 10:33:06;;;;;;;1.50;1.40;;;14.90;99.90;;;;;;10229369;29;20224;-79
2020/12/23 10:38:08;;;;;;;1.50;1.40;;;15.00;99.90;;;;;;10223879;29;20216;-79
2020/12/23 10:43:11;;;;;;;1.80;1.10;;;15.00;99.90;;;;;;10212415;29;20225;-79
2020/12/23 10:48:12;;;;;;;14.60;3.93;;;15.10;99.90;;;;;;10233021;29;20534;-79
2020/12/23 10:53:14;;;;;;;1.80;1.70;;;15.10;99.90;;;;;;10214326;29;20220;-79
2020/12/23 10:58:16;;;;;;;1.57;1.47;;;15.20;99.90;;;;;;10250710;29;20216;-79
2020/12/23 11:03:18;;;;;;;1.60;1.50;;;15.20;99.90;;;;;;10232485;29;20217;-79
2020/12/23 11:08:20;;;;;;;2.10;1.90;;;15.20;99.90;;;;;;10205649;29;20613;-80
2020/12/23 11:13:22;;;;;;;2.20;2.00;;;15.30;99.90;;;;;;10252837;29;20234;-79
2020/12/23 11:18:24;;;;;;;1.63;1.47;;;15.30;99.90;;;;;;10232930;29;20205;-79
2020/12/23 11:23:26;;;;;;;1.77;1.67;;;15.30;99.90;;;;;;10197215;29;20705;-80
2020/12/23 11:28:31;;;;;;;2.47;2.27;;;15.20;99.90;;;;;;10217716;29;20276;-80
2020/12/23 11:33:33;;;;;;;2.00;1.90;;;15.30;99.90;;;;;;10212263;28;20251;-79
2020/12/23 11:38:34;;;;;;;1.60;1.50;;;15.20;99.90;;;;;;10237952;29;20212;-79
2020/12/23 11:43:37;;;;;;;1.47;1.37;;;15.20;99.90;;;;;;10231299;29;20221;-80
2020/12/23 11:48:40;;;;;;;2.00;1.90;;;15.10;99.90;;;;;;10214536;29;20604;-80
2020/12/23 11:53:43;;;;;;;2.50;2.40;;;15.10;99.90;;;;;;10210470;29;20265;-80
2020/12/23 11:58:45;;;;;;;1.57;1.57;;;15.00;99.90;;;;;;10193435;29;20217;-80
2020/12/23 12:03:47;;;;;;;1.57;1.47;;;14.90;99.90;;;;;;10223546;29;20352;-81
2020/12/23 12:08:49;;;;;;;1.80;1.70;;;14.90;99.90;;;;;;10207410;29;20241;-81
2020/12/23 12:13:52;;;;;;;1.70;1.60;;;15.00;99.90;;;;;;10239824;29;20227;-80
2020/12/23 12:18:53;;;;;;;2.00;1.77;;;15.00;99.90;;;;;;10199812;29;20988;-81
2020/12/23 12:23:55;;;;;;;2.40;1.90;;;15.00;99.90;;;;;;10237560;29;20914;-80
2020/12/23 12:28:58;;;;;;;1.70;1.60;;;15.00;99.90;;;;;;10206539;29;20235;-81
2020/12/23 12:34:00;;;;;;;2.50;1.90;;;15.10;99.90;;;;;;10203974;29;20267;-80
2020/12/23 12:39:01;;;;;;;1.80;1.70;;;15.10;99.90;;;;;;10229090;29;20914;-80
2020/12/23 12:44:04;;;;;;;2.07;1.70;;;15.10;99.90;;;;;;10225650;28;20251;-80
2020/12/23 12:49:06;;;;;;;0.97;0.97;;;15.10;99.90;;;;;;10239861;29;20224;-80
2020/12/23 12:54:07;;;;;;;1.50;1.40;;;15.10;99.90;;;;;;10245854;29;20215;-80
2020/12/23 12:59:10;;;;;;;1.40;1.30;;;15.10;99.90;;;;;;10246894;29;20279;-79
2020/12/23 13:04:12;;;;;;;1.40;1.30;;;15.10;99.90;;;;;;10213943;29;20646;-79
2020/12/23 13:09:14;;;;;;;1.50;1.40;;;15.10;99.90;;;;;;10247462;29;20208;-79
2020/12/23 13:14:16;;;;;;;2.70;1.80;;;15.10;99.90;;;;;;10213067;29;20247;-79
2020/12/23 13:19:18;;;;;;;1.63;1.53;;;15.10;99.90;;;;;;10205235;29;20221;-80
2020/12/23 13:24:20;;;;;;;1.73;1.63;;;15.00;99.90;;;;;;10205539;29;20233;-80
2020/12/23 13:29:22;;;;;;;1.87;1.77;;;15.00;99.90;;;;;;10235298;29;20193;-80
2020/12/23 13:34:24;;;;;;;2.00;1.87;;;15.00;99.90;;;;;;10187619;29;20239;-79
2020/12/23 13:39:26;;;;;;;2.30;2.10;;;14.90;99.90;;;;;;10207453;29;20212;-79
2020/12/23 13:44:28;;;;;;;1.20;1.10;;;15.00;99.90;;;;;;10188694;29;20229;-80
2020/12/23 13:49:31;;;;;;;1.20;1.20;;;14.90;99.90;;;;;;10190860;29;20256;-80
2020/12/23 13:54:32;;;;;;;1.40;1.30;;;14.90;99.90;;;;;;10218718;29;20319;-79
2020/12/23 13:59:35;;;;;;;1.60;1.50;;;14.90;99.90;;;;;;10208452;29;20430;-80
2020/12/23 14:04:37;;;;;;;1.50;1.40;;;14.90;99.90;;;;;;10214491;29;20225;-80
2020/12/23 14:09:38;;;;;;;1.43;1.40;;;15.00;99.90;;;;;;10217634;29;20193;-80
2020/12/23 14:14:41;;;;;;;1.37;1.27;;;14.90;99.90;;;;;;10179238;29;20745;-81
2020/12/23 14:19:43;;;;;;;1.50;1.40;;;14.80;99.90;;;;;;10234438;29;20578;-78
2020/12/23 14:24:44;;;;;;;1.50;1.40;;;14.50;99.90;;;;;;10211594;29;20236;-79
2020/12/23 14:29:47;;;;;;;1.37;1.27;;;14.20;99.90;;;;;;10226523;29;20229;-79
2020/12/23 14:34:49;;;;;;;1.50;1.40;;;14.00;99.90;;;;;;10235965;29;20229;-79
2020/12/23 14:39:50;;;;;;;1.17;1.17;;;13.80;99.90;;;;;;10242088;29;20216;-79
2020/12/23 14:44:53;;;;;;;1.43;1.33;;;13.70;99.90;;;;;;10230199;29;20221;-79
2020/12/23 14:49:54;;;;;;;1.80;1.70;;;13.60;99.90;;;;;;10217809;29;20216;-79
2020/12/23 14:54:57;;;;;;;1.37;1.27;;;13.60;99.90;;;;;;10232571;29;20217;-80
2020/12/23 14:59:59;;;;;;;1.73;1.63;;;13.50;99.90;;;;;;10200781;29;20213;-80
2020/12/23 15:05:01;;;;;;;1.37;1.27;;;13.40;99.90;;;;;;10211996;29;20223;-81
2020/12/23 15:10:03;;;;;;;1.30;1.20;;;13.40;99.90;;;;;;10242839;28;20326;-80
2020/12/23 15:15:06;;;;;;;1.10;1.10;;;13.40;99.90;;;;;;10253826;29;20224;-81
2020/12/23 15:20:08;;;;;;;1.50;1.40;;;13.40;99.90;;;;;;10233821;29;20308;-79
2020/12/23 15:25:09;;;;;;;4.20;1.40;;;13.50;99.90;;;;;;10207516;29;20740;-80
2020/12/23 15:30:12;;;;;;;4.77;1.40;;;13.40;99.90;;;;;;10224324;29;20228;-79
2020/12/23 15:35:13;;;;;;;2.00;1.80;;;13.40;99.90;;;;;;10245690;29;20307;-81
2020/12/23 15:40:15;;;;;;;2.03;1.60;;;13.40;99.90;;;;;;10210481;29;20213;-80
2020/12/23 15:45:17;;;;;;;2.03;1.60;;;13.30;99.90;;;;;;10218209;29;20303;-80
2020/12/23 15:50:20;;;;;;;1.80;1.70;;;13.30;99.90;;;;;;10181088;29;21048;-80
2020/12/23 15:55:21;;;;;;;3.77;2.73;;;13.30;99.90;;;;;;10218970;29;20225;-80
2020/12/23 16:00:24;;;;;;;2.23;1.90;;;13.20;99.90;;;;;;10197374;29;20215;-80
2020/12/23 16:05:26;;;;;;;1.80;1.70;;;13.20;99.90;;;;;;10200014;29;20251;-80
2020/12/23 16:10:27;;;;;;;1.63;1.53;;;13.20;99.90;;;;;;10213628;29;20235;-80
2020/12/23 16:15:30;;;;;;;2.33;2.13;;;13.20;99.90;;;;;;10196196;29;20314;-80
2020/12/23 16:20:31;;;;;;;4.80;1.57;;;13.30;99.90;;;;;;10213074;29;20690;-80
2020/12/23 16:25:34;;;;;;;4.47;1.87;;;13.20;99.90;;;;;;10258710;23;20764;-83
2020/12/23 16:30:36;;;;;;;1.83;1.73;;;13.20;99.90;;;;;;10261060;29;20259;-80
2020/12/23 16:35:38;;;;;;;2.07;1.70;;;13.20;99.90;;;;;;10242672;29;20236;-81
2020/12/23 16:40:40;;;;;;;1.70;1.60;;;13.20;99.90;;;;;;10221140;29;20304;-81
2020/12/23 16:45:42;;;;;;;2.10;1.90;;;13.20;99.90;;;;;;10204592;29;20248;-81
2020/12/23 16:50:44;;;;;;;3.03;1.90;;;13.30;99.90;;;;;;10264250;28;20204;-81
2020/12/23 16:55:45;;;;;;;1.90;1.80;;;13.30;99.90;;;;;;10246064;28;20722;-81
2020/12/23 17:00:48;;;;;;;1.60;1.50;;;13.30;99.90;;;;;;10279237;28;20918;-82
2020/12/23 17:05:50;;;;;;;1.80;1.70;;;13.40;99.90;;;;;;10266099;28;20224;-80
2020/12/23 17:10:51;;;;;;;1.63;1.53;;;13.50;99.90;;;;;;10233346;29;20224;-80
2020/12/23 17:15:54;;;;;;;2.00;1.77;;;13.50;99.90;;;;;;10255499;28;20314;-81
2020/12/23 17:20:56;;;;;;;2.33;2.13;;;13.60;99.90;;;;;;10257018;28;20216;-81
2020/12/23 17:25:57;;;;;;;1.90;1.80;;;13.50;99.90;;;;;;10237581;28;20657;-81
2020/12/23 17:31:00;;;;;;;2.60;2.47;;;13.50;99.90;;;;;;10246137;28;20208;-81
2020/12/23 17:36:01;;;;;;;1.70;1.60;;;13.40;99.90;;;;;;10266214;28;20307;-81
2020/12/23 17:41:03;;;;;;;2.10;2.00;;;13.30;99.90;;;;;;10238341;28;20257;-81
2020/12/23 17:46:06;;;;;;;2.50;2.30;;;13.30;99.90;;;;;;10264766;28;20251;-81
2020/12/23 17:51:08;;;;;;;3.37;2.37;;;13.20;99.90;;;;;;10261503;28;20238;-80
2020/12/23 17:56:10;;;;;;;2.90;2.70;;;13.20;99.90;;;;;;10285803;28;20224;-80
2020/12/23 18:01:13;;;;;;;2.40;2.20;;;13.10;99.90;;;;;;10236961;28;20775;-80
2020/12/23 18:06:14;;;;;;;2.23;2.13;;;13.10;99.90;;;;;;10241352;28;20263;-80
2020/12/23 18:11:17;;;;;;;2.83;2.63;;;13.00;99.90;;;;;;10226485;28;20268;-80
2020/12/23 18:16:20;;;;;;;2.63;2.43;;;13.00;99.90;;;;;;10228744;28;20232;-80
2020/12/23 18:21:25;;;;;;;2.50;2.40;;;12.90;99.90;;;;;;10233492;28;20220;-80
2020/12/23 18:26:28;;;;;;;2.60;2.50;;;12.90;99.90;;;;;;10233274;28;20234;-81
2020/12/23 18:31:30;;;;;;;3.33;3.00;;;13.00;99.90;;;;;;10234441;29;20216;-81
2020/12/23 18:36:32;;;;;;;2.80;2.60;;;13.00;99.90;;;;;;10224614;28;21013;-81
2020/12/23 18:41:35;;;;;;;3.73;3.50;;;13.00;99.90;;;;;;10278419;28;20208;-81
2020/12/23 18:46:37;;;;;;;2.10;2.00;;;13.00;99.90;;;;;;10274105;28;20224;-81
2020/12/23 18:51:39;;;;;;;2.90;2.70;;;13.00;99.90;;;;;;10271463;28;20204;-82
2020/12/23 18:56:41;;;;;;;2.50;1.80;;;12.90;99.90;;;;;;10266420;28;20228;-82
2020/12/23 19:01:49;;;;;;;3.00;2.80;;;12.90;99.90;;;;;;10267923;28;20819;-81
2020/12/23 19:06:51;;;;;;;3.50;3.20;;;12.90;99.90;;;;;;10260102;28;20359;-81
2020/12/23 19:11:52;;;;;;;3.00;2.80;;;13.00;99.90;;;;;;10266525;28;20200;-81
2020/12/23 19:16:55;;;;;;;3.87;3.57;;;12.90;99.90;;;;;;10261675;28;20224;-81
2020/12/23 19:21:56;;;;;;;2.30;2.20;;;12.90;99.90;;;;;;10255266;28;20204;-81
2020/12/23 19:26:58;;;;;;;6.00;2.87;;;12.90;99.90;;;;;;10286844;28;20232;-81
2020/12/23 19:32:00;;;;;;;3.20;3.00;;;12.90;99.90;;;;;;10278955;28;20632;-82
2020/12/23 19:37:03;;;;;;;2.50;2.40;;;12.90;99.90;;;;;;10267188;28;20306;-81
2020/12/23 19:42:05;;;;;;;1.73;1.63;;;12.90;99.90;;;;;;10264987;28;20204;-81
2020/12/23 19:47:07;;;;;;;1.63;1.53;;;12.80;99.90;;;;;;10257031;28;20224;-82
2020/12/23 19:52:09;;;;;;;1.50;1.40;;;12.80;99.90;;;;;;10229809;28;20251;-81
2020/12/23 19:57:11;;;;;;;3.00;1.60;;;12.80;99.90;;;;;;10240115;29;20866;-82
2020/12/23 20:02:14;;;;;;;1.60;1.50;;;12.70;99.90;;;;;;10258322;28;20398;-81
2020/12/23 20:07:15;;;;;;;1.40;1.40;;;12.70;99.90;;;;;;10242773;28;20231;-81
2020/12/23 20:12:17;;;;;;;1.80;1.70;;;12.70;99.90;;;;;;10271679;28;20283;-81
2020/12/23 20:17:20;;;;;;;1.40;1.30;;;12.70;99.90;;;;;;10252212;28;20284;-81
2020/12/23 20:22:21;;;;;;;2.23;2.13;;;12.70;99.90;;;;;;10253996;28;20208;-82
2020/12/23 20:27:23;;;;;;;1.53;1.43;;;12.60;99.90;;;;;;10269867;28;20783;-81
2020/12/23 20:32:26;;;;;;;1.20;1.10;;;12.60;99.90;;;;;;10283888;28;20731;-81
2020/12/23 20:37:28;;;;;;;0.80;0.80;;;12.60;99.90;;;;;;10237814;29;20224;-81
2020/12/23 20:42:29;;;;;;;0.90;0.90;;;12.50;99.90;;;;;;10272949;28;20231;-81
2020/12/23 20:47:32;;;;;;;1.00;1.00;;;12.50;99.90;;;;;;10283143;28;20698;-80
2020/12/23 20:52:34;;;;;;;1.63;0.97;;;12.50;99.90;;;;;;10272531;28;20201;-80
2020/12/23 20:57:36;;;;;;;1.00;1.00;;;12.50;99.90;;;;;;10261419;28;20224;-82
2020/12/23 21:02:38;;;;;;;1.80;1.30;;;12.50;99.90;;;;;;10233180;29;20211;-81
2020/12/23 21:07:40;;;;;;;1.03;1.00;;;12.40;99.90;;;;;;10235647;28;20224;-80
2020/12/23 21:12:42;;;;;;;1.10;1.00;;;12.40;99.90;;;;;;10235668;29;20251;-80
2020/12/23 21:17:45;;;;;;;1.20;1.10;;;12.40;99.90;;;;;;10219812;29;20311;-80
2020/12/23 21:22:46;;;;;;;1.10;1.00;;;12.40;99.90;;;;;;10234503;29;20196;-80
2020/12/23 21:27:49;;;;;;;0.90;0.90;;;12.40;99.90;;;;;;10253320;29;20224;-80
2020/12/23 21:32:52;;;;;;;2.73;1.57;;;12.40;99.90;;;;;;10273200;28;20203;-80
2020/12/23 21:37:53;;;;;;;1.20;1.20;;;12.40;99.90;;;;;;10294415;28;20237;-80
2020/12/23 21:42:55;;;;;;;0.90;0.90;;;12.40;99.90;;;;;;10252603;28;20238;-81
2020/12/23 21:47:58;;;;;;;0.80;0.80;;;12.40;99.90;;;;;;10293384;28;20274;-80
2020/12/23 21:52:59;;;;;;;0.70;0.70;;;12.40;99.90;;;;;;10262967;28;20212;-80
2020/12/23 21:58:01;;;;;;;0.80;0.80;;;12.40;99.90;;;;;;10259928;28;20231;-82
2020/12/23 22:03:03;;;;;;;1.30;1.10;;;12.50;99.90;;;;;;10270939;28;20612;-82
2020/12/23 22:08:05;;;;;;;1.20;1.10;;;12.50;99.90;;;;;;10257276;29;20280;-83
2020/12/23 22:13:07;;;;;;;0.70;0.70;;;12.50;99.90;;;;;;10228421;29;20200;-83
2020/12/23 22:18:09;;;;;;;0.80;0.80;;;12.50;99.90;;;;;;10251308;28;20255;-81
2020/12/23 22:23:11;;;;;;;1.23;1.23;;;12.50;99.90;;;;;;10265314;28;20680;-82
2020/12/23 22:28:13;;;;;;;1.00;1.00;;;12.40;99.90;;;;;;10283584;28;20195;-82
2020/12/23 22:33:15;;;;;;;1.30;1.20;;;12.40;99.90;;;;;;10283067;28;20712;-81
2020/12/23 22:38:17;;;;;;;1.20;1.17;;;12.20;99.90;;;;;;10244351;29;20232;-81
2020/12/23 22:43:18;;;;;;;1.00;1.00;;;12.00;99.90;;;;;;10227140;28;20475;-80
2020/12/23 22:48:21;;;;;;;1.10;1.10;;;11.90;99.90;;;;;;10284148;28;20188;-80
2020/12/23 22:53:23;;;;;;;1.33;1.30;;;11.80;99.90;;;;;;10280235;28;20196;-80
2020/12/23 22:58:24;;;;;;;1.50;1.40;;;11.80;99.90;;;;;;10252134;28;20211;-81
2020/12/23 23:03:27;;;;;;;1.13;1.13;;;11.80;99.90;;;;;;10276656;28;20206;-81
2020/12/23 23:08:28;;;;;;;1.30;1.10;;;11.70;99.90;;;;;;10247687;28;20191;-81
2020/12/23 23:13:30;;;;;;;1.03;0.97;;;11.70;99.90;;;;;;10291935;28;20323;-81
2020/12/23 23:18:33;;;;;;;1.10;1.10;;;11.60;99.90;;;;;;10275567;28;20215;-81
2020/12/23 23:23:35;;;;;;;1.13;1.13;;;11.60;99.90;;;;;;10276983;28;20224;-81
2020/12/23 23:28:37;;;;;;;1.10;1.10;;;11.60;99.90;;;;;;10278462;28;20563;-81
2020/12/23 23:33:39;;;;;;;1.30;1.20;;;11.60;99.90;;;;;;10281442;28;20282;-81
2020/12/23 23:38:41;;;;;;;2.10;1.00;;;11.60;99.90;;;;;;10249423;28;20303;-81
2020/12/23 23:43:42;;;;;;;1.40;1.30;;;11.60;99.90;;;;;;10258319;28;20228;-81
2020/12/23 23:48:45;;;;;;;1.00;1.00;;;11.60;99.90;;;;;;10251973;28;20188;-81
2020/12/23 23:53:46;;;;;;;1.40;1.30;;;11.60;99.90;;;;;;10247159;28;20313;-81
2020/12/23 23:58:48;;;;;;;1.00;1.00;;;11.50;99.90;;;;;;10238255;29;20244;-81
